Tampa, KS

8:04 PM CDT on September 23, 2014 (GMT -0500)
South Cottonwood Hillsboro | Change Station
CLOSE
Current Station
Personal Weather Station
Location: Hillsboro, KS
Elevation: 1388 ft
Nearby Weather Stations

Elev 1388 ft 38.30 °N, 97.21 °W | Updated 3 seconds ago

Overcast
Overcast
71.5 °F
Feels Like 77 °F
N
5.0
Wind Variable Wind from ESE
Gusts 9.0 mph

Today
High -- | Low -- °F
--% Chance of Precip.
Yesterday
High -- | Low -- °F
Precip. -- in
7:17 AM 7:24 PM
Waning Crescent, 0% visible
Pressure 30.01 in
Visibility 10.0 miles
Clouds Few 4200 ft
Overcast 8000 ft
Heat Index 77 °F
Dew Point 54 °F
Humidity 54%
Rainfall 0.00 in
Snow Depth Not available.
UV 0 out of 12
Pollen 5.20 out of 12
Air Quality Not available.
Flu Activity Not available.
METAR KSLN 240053Z 14010KT 10SM FEW042 OVC080 21/14 A3003 RMK AO2 LTG DSNT SE-W RAB24E47 SLP163 P0003 T02060144

More Conditions Fewer Conditions

Pressure 30.01 in
Visibility 10.0 miles
Clouds Few 4200 ft
Overcast 8000 ft
Heat Index 77 °F
Dew Point 54 °F
Humidity 54%
Rainfall 0.00 in
Snow Depth Not available.
UV 0 out of 12
Pollen 5.20 out of 12
Air Quality Not available.
Flu Activity Not available.
METAR KSLN 240053Z 14010KT 10SM FEW042 OVC080 21/14 A3003 RMK AO2 LTG DSNT SE-W RAB24E47 SLP163 P0003 T02060144

More Conditions Fewer Conditions

10-Day Weather Forecast

Almanac

Astronomy

Sep. 23, 2014 Rise Set
Actual Time 7:17 AM CDT 7:24 PM CDT
Civil Twilight 6:50 AM CDT 7:50 PM CDT
Nautical Twilight 6:20 AM CDT 8:21 PM CDT
Astronomical Twilight 5:48 AM CDT 8:52 PM CDT
Moon 6:43 AM CDT (9/23) 7:03 PM CDT (9/23)
Length of Visible Light 12h 59m
Length of Day
12h 06m
Tomorrow will be 2m 30s shorter.
Waning Crescent, 0% of the Moon is Illuminated
Today
Waning Crescent
Sep 24
New
Oct 1
First Quarter
Oct 8
Full
Oct 15
Last Quarter

Today's Extremes

State Highs State Lows

Community

WunderPhotos

Upload Photos

1,755,834 photos uploaded!

Nearby

Snow Depth

Station Depth Elevation
No new snow has been reported.

Earthquake Activity

City Distance Mag. Time & Date
Helena, Oklahoma 146 miles 2.5 9:27 AM CDT
2014-09-23
Medford, Oklahoma 128 miles 3.1 10:45 PM CDT
2014-09-22
Minimum magnitude displayed is 2.5.

Coastal Water Temperatures

Place Temperature
No Stations Reporting

Nearby Weather Stations